Tropical Cyclones
[Index]
Main Index Home Page Stock Weather Photos Extreme Storms Discussion Storm News and Storm Chasing Reports Tropical Cyclones / Hurricanes / Typhoons Weather Data and Links Wild Fires / Bushfires Weather Observation Techniques Weather Picture Catalogue Tornado Pictures and Reports Stock Video Footage and DVDs for sale
Season 1983-1984 Tropical Cyclone 198403 Track Map
Season 1983-1984 Summaries: [BoM-AU] [JTWC-AU] [JTWC-SIO] [JTWC-SPAC] [JTWC-SH]
<<- Previous TC | JTWC 1983-1984 Season | Next TC ->>

click for intensity scale information  Lat/long Grid: Show Hide

 Date Labels: Show Hide

Joint Typhoon Warning Centre Cyclone Data

Name: 198403

25 Oct 1983 00:00 UTC to 31 Oct 1983 00:00 UTC

    date/time    lat    long     hPa   cat  kts
1983-10-25 00   11.7    87.1                  35          
1983-10-25 06   11.4    87.7                  35          
1983-10-25 12   11.5    88.0            1     40          
1983-10-25 18   12.1    87.9            1     40          
1983-10-26 00   12.7    87.8            1     45          
1983-10-26 06   13.1    87.6            1     45          
1983-10-26 12   13.4    87.4            1     50          
1983-10-26 18   13.5    87.1            2     55          
1983-10-27 00   13.7    86.7            2     60          
1983-10-27 06   13.9    86.5            2     65          
1983-10-27 12   14.2    86.5            2     65          
1983-10-27 18   14.5    86.7            2     65          
1983-10-28 00   14.9    87.2            2     65          
1983-10-28 06   15.6    88.1            2     70          
1983-10-28 12   16.4    88.9            2     70          
1983-10-28 18   17.1    89.6            2     70          
1983-10-29 00   17.8    90.2            2     65          
1983-10-29 06   18.6    90.8            2     65          
1983-10-29 12   19.6    91.4            2     60          
1983-10-29 18   20.7    92.0            2     55          
1983-10-30 00   21.9    92.6            1     45          
1983-10-30 06   23.1    93.2            1     45          
1983-10-30 12   24.3    93.8            1     40          
1983-10-30 18   25.2    94.9                  35          
1983-10-31 00   25.7    96.7                  30          
Winds are 1-min average.

Tropical cyclone tracks developed by Michael Bath using data from the Joint Typhoon Warning Centre Best Tracks and Google Maps.


[Australian Severe Weather index] [Copyright Notice] [Email Contacts] [Search This Site] [Privacy Policy]
Document: tropical_cyclone_198403.htm Updated: 18 September 2016